Time;durP1;ratioP1;P1;durP2;ratioP2;P2;SDS_P1;SDS_P2;PMS_P1;PMS_P2;Temp;Humidity;BMP_temperature;BMP_pressure;BME280_temperature;BME280_humidity;BME280_pressure;Samples;Min_cycle;Max_cycle;Signal;HPM_P1;HPM_P2
2022/06/28 00:00:21;;;;;;;3.70;2.90;;;;;;;;;;5085344;28;20246;-70
2022/06/28 00:02:47;;;;;;;4.88;3.33;;;;;;;;;;5085502;28;20539;-70
2022/06/28 00:05:15;;;;;;;3.05;2.85;;;;;;;;;;5085585;28;20227;-70
2022/06/28 00:07:42;;;;;;;4.47;2.80;;;;;;;;;;5085292;28;20227;-70
2022/06/28 00:10:10;;;;;;;3.20;2.78;;;;;;;;;;5085406;28;20364;-71
2022/06/28 00:12:36;;;;;;;2.83;2.58;;;;;;;;;;5085367;28;20264;-70
2022/06/28 00:17:46;;;;;;;5.00;2.60;;;;;;;;;;5084996;28;20255;-70
2022/06/28 00:20:13;;;;;;;4.93;2.00;;;;;;;;;;5085407;28;20500;-70
2022/06/28 00:22:40;;;;;;;2.83;2.55;;;;;;;;;;5085318;28;20286;-70
2022/06/28 00:25:07;;;;;;;3.17;2.38;;;;;;;;;;5085159;28;20205;-70
2022/06/28 00:27:33;;;;;;;2.97;2.05;;;;;;;;;;5084707;28;20216;-70
2022/06/28 00:30:00;;;;;;;2.40;2.22;;;;;;;;;;5085138;28;20522;-70
2022/06/28 00:32:26;;;;;;;5.20;2.25;;;;;;;;;;5085256;28;20556;-70
2022/06/28 00:34:52;;;;;;;6.60;2.22;;;;;;;;;;5084824;28;20216;-70
2022/06/28 00:37:18;;;;;;;2.47;2.38;;;;;;;;;;5084669;28;20410;-70
2022/06/28 00:39:46;;;;;;;2.63;2.45;;;;;;;;;;5084871;28;20200;-70
2022/06/28 00:42:13;;;;;;;3.88;2.70;;;;;;;;;;5084707;28;20196;-70
2022/06/28 00:44:39;;;;;;;5.63;2.60;;;;;;;;;;5084928;28;20637;-70
2022/06/28 00:47:07;;;;;;;2.78;2.58;;;;;;;;;;5084824;28;20227;-70
2022/06/28 00:49:33;;;;;;;5.40;2.38;;;;;;;;;;5084825;28;20496;-70
2022/06/28 00:52:02;;;;;;;5.68;2.28;;;;;;;;;;5084762;28;20196;-70
2022/06/28 00:54:30;;;;;;;2.60;2.50;;;;;;;;;;5084743;28;20197;-70
2022/06/28 00:56:57;;;;;;;6.53;3.47;;;;;;;;;;5084317;28;20222;-70
2022/06/28 00:59:24;;;;;;;4.05;3.17;;;;;;;;;;5084891;28;20500;-70
2022/06/28 01:01:50;;;;;;;3.40;3.20;;;;;;;;;;5084559;28;20204;-70
2022/06/28 01:04:16;;;;;;;3.17;2.95;;;;;;;;;;5084315;28;20200;-70
2022/06/28 01:06:43;;;;;;;3.30;2.97;;;;;;;;;;5084099;28;20220;-70
2022/06/28 01:09:09;;;;;;;3.22;2.72;;;;;;;;;;5084176;28;20204;-70
2022/06/28 01:11:35;;;;;;;5.60;2.80;;;;;;;;;;5084092;28;20527;-70
2022/06/28 01:14:06;;;;;;;4.05;2.70;;;;;;;;;;5084401;28;20196;-70
2022/06/28 01:16:33;;;;;;;5.88;3.00;;;;;;;;;;5083853;28;20193;-70
2022/06/28 01:18:59;;;;;;;7.03;2.90;;;;;;;;;;5084103;28;20200;-70
2022/06/28 01:21:26;;;;;;;7.80;2.72;;;;;;;;;;5084100;28;20196;-70
2022/06/28 01:23:54;;;;;;;2.75;2.55;;;;;;;;;;5083894;28;20196;-70
2022/06/28 01:26:20;;;;;;;6.47;3.00;;;;;;;;;;5083522;28;20216;-70
2022/06/28 01:28:47;;;;;;;2.75;2.55;;;;;;;;;;5083349;28;20196;-70
2022/06/28 01:31:13;;;;;;;8.23;3.10;;;;;;;;;;5083788;28;20207;-70
2022/06/28 01:33:40;;;;;;;5.60;2.92;;;;;;;;;;5083690;28;20196;-70
2022/06/28 01:36:07;;;;;;;3.83;2.90;;;;;;;;;;5083027;28;20208;-70
2022/06/28 01:38:34;;;;;;;5.53;2.75;;;;;;;;;;5083793;28;20426;-70
2022/06/28 01:41:02;;;;;;;4.35;2.60;;;;;;;;;;5083806;28;20204;-70
2022/06/28 01:43:28;;;;;;;4.75;2.33;;;;;;;;;;5083655;28;20456;-70
2022/06/28 01:45:55;;;;;;;2.60;2.40;;;;;;;;;;5083361;28;20196;-70
2022/06/28 01:48:21;;;;;;;4.70;2.10;;;;;;;;;;5083186;28;20251;-70
2022/06/28 01:50:48;;;;;;;4.10;2.20;;;;;;;;;;5083703;28;20208;-70
2022/06/28 01:53:14;;;;;;;3.22;2.33;;;;;;;;;;5083613;28;20262;-70
2022/06/28 01:55:41;;;;;;;2.33;2.13;;;;;;;;;;5083540;28;20251;-70
2022/06/28 01:58:09;;;;;;;3.38;2.30;;;;;;;;;;5083246;28;20423;-70
2022/06/28 02:00:36;;;;;;;2.63;2.38;;;;;;;;;;5083230;28;20204;-70
2022/06/28 02:03:03;;;;;;;2.30;1.80;;;;;;;;;;5083089;28;20234;-70
2022/06/28 02:05:29;;;;;;;5.45;1.95;;;;;;;;;;5083414;28;20220;-70
2022/06/28 02:07:55;;;;;;;3.80;1.50;;;;;;;;;;5083026;28;20220;-70
2022/06/28 02:10:22;;;;;;;3.63;1.63;;;;;;;;;;5082993;28;20212;-70
2022/06/28 02:12:49;;;;;;;7.03;1.80;;;;;;;;;;5083079;28;20204;-70
2022/06/28 02:15:17;;;;;;;2.75;1.60;;;;;;;;;;5083124;28;20204;-70
2022/06/28 02:17:43;;;;;;;3.38;1.48;;;;;;;;;;5082636;28;20215;-70
2022/06/28 02:20:10;;;;;;;2.58;1.40;;;;;;;;;;5082993;28;20203;-70
2022/06/28 02:22:37;;;;;;;4.43;1.55;;;;;;;;;;5083027;28;20200;-70
2022/06/28 02:25:03;;;;;;;3.85;1.40;;;;;;;;;;5082967;28;20207;-70
2022/06/28 02:27:29;;;;;;;7.90;1.88;;;;;;;;;;5082454;28;20416;-70
2022/06/28 02:29:56;;;;;;;2.40;1.30;;;;;;;;;;5082703;28;20211;-70
2022/06/28 02:32:23;;;;;;;1.60;1.00;;;;;;;;;;5082911;28;20188;-70
2022/06/28 02:40:24;;;;;;;3.72;1.15;;;;;;;;;;5082797;28;20372;-70
2022/06/28 02:42:51;;;;;;;5.40;1.10;;;;;;;;;;5082601;28;20196;-70
2022/06/28 02:45:17;;;;;;;2.15;1.38;;;;;;;;;;5082764;28;20201;-70
2022/06/28 02:47:45;;;;;;;4.25;1.00;;;;;;;;;;5081322;28;20216;-70
2022/06/28 02:50:12;;;;;;;7.28;1.55;;;;;;;;;;5082630;28;20203;-70
2022/06/28 02:52:39;;;;;;;4.20;1.40;;;;;;;;;;5082530;28;20242;-70
2022/06/28 02:55:06;;;;;;;1.30;1.30;;;;;;;;;;5082438;28;20196;-70
2022/06/28 02:57:32;;;;;;;4.25;1.25;;;;;;;;;;5082186;28;20224;-70
2022/06/28 02:59:59;;;;;;;2.55;1.00;;;;;;;;;;5082358;28;20238;-70
2022/06/28 03:02:25;;;;;;;2.97;1.30;;;;;;;;;;5082326;28;20395;-70
2022/06/28 03:04:52;;;;;;;5.25;1.73;;;;;;;;;;5082425;28;20235;-70
2022/06/28 03:07:19;;;;;;;1.55;1.45;;;;;;;;;;5082064;28;20216;-70
2022/06/28 03:09:45;;;;;;;4.78;1.55;;;;;;;;;;5082267;28;20197;-70
2022/06/28 03:12:11;;;;;;;4.90;1.70;;;;;;;;;;5082471;28;20528;-70
2022/06/28 03:14:38;;;;;;;3.47;1.25;;;;;;;;;;5082376;28;20196;-70
2022/06/28 03:17:04;;;;;;;4.75;1.23;;;;;;;;;;5082061;28;20193;-70
2022/06/28 03:19:31;;;;;;;5.88;1.48;;;;;;;;;;5082186;28;20200;-70
2022/06/28 03:21:58;;;;;;;5.60;1.38;;;;;;;;;;5082164;28;20196;-70
2022/06/28 03:24:25;;;;;;;2.60;1.38;;;;;;;;;;5082192;28;20196;-70
2022/06/28 03:26:51;;;;;;;4.88;1.20;;;;;;;;;;5081823;28;20219;-70
2022/06/28 03:29:18;;;;;;;6.15;1.13;;;;;;;;;;5082184;28;20227;-70
2022/06/28 03:31:44;;;;;;;5.38;1.40;;;;;;;;;;5082421;28;20208;-70
2022/06/28 03:34:10;;;;;;;1.65;1.23;;;;;;;;;;5081955;28;20196;-70
2022/06/28 03:36:36;;;;;;;1.33;1.33;;;;;;;;;;5081706;28;20203;-70
2022/06/28 03:39:04;;;;;;;6.15;1.35;;;;;;;;;;5082302;28;20441;-70
2022/06/28 03:41:30;;;;;;;2.50;1.40;;;;;;;;;;5082083;28;20496;-70
2022/06/28 03:43:57;;;;;;;1.58;1.52;;;;;;;;;;5082131;28;20414;-70
2022/06/28 03:46:23;;;;;;;4.97;1.85;;;;;;;;;;5081873;28;20197;-70
2022/06/28 03:48:49;;;;;;;1.55;1.45;;;;;;;;;;5081953;28;20245;-70
2022/06/28 03:51:16;;;;;;;1.75;1.42;;;;;;;;;;5081759;28;20197;-70
2022/06/28 03:53:42;;;;;;;1.67;1.67;;;;;;;;;;5082044;28;20421;-70
2022/06/28 03:56:10;;;;;;;1.83;1.77;;;;;;;;;;5081892;28;20411;-70
2022/06/28 03:58:36;;;;;;;1.80;1.70;;;;;;;;;;5082111;28;20359;-70
2022/06/28 04:01:03;;;;;;;1.88;1.77;;;;;;;;;;5085653;28;20195;-70
2022/06/28 04:03:29;;;;;;;2.83;1.77;;;;;;;;;;5085673;28;20197;-70
2022/06/28 04:05:56;;;;;;;1.80;1.70;;;;;;;;;;5085764;28;20415;-70
2022/06/28 04:08:22;;;;;;;3.25;1.88;;;;;;;;;;5085382;28;20225;-70
2022/06/28 04:10:49;;;;;;;3.63;1.80;;;;;;;;;;5085696;28;20212;-70
2022/06/28 04:13:16;;;;;;;3.67;1.50;;;;;;;;;;5085717;28;20364;-70
2022/06/28 04:15:42;;;;;;;2.60;1.48;;;;;;;;;;5085364;28;20197;-68
2022/06/28 04:18:09;;;;;;;1.60;1.50;;;;;;;;;;5085115;28;20199;-68
2022/06/28 04:20:41;;;;;;;1.85;1.75;;;;;;;;;;5085123;28;20196;-68
2022/06/28 04:23:07;;;;;;;2.25;2.05;;;;;;;;;;5085272;28;20203;-68
2022/06/28 04:25:33;;;;;;;3.15;1.40;;;;;;;;;;5085101;28;20197;-68
2022/06/28 04:27:59;;;;;;;1.50;1.40;;;;;;;;;;5084939;28;20216;-68
2022/06/28 04:30:28;;;;;;;2.65;1.35;;;;;;;;;;5084946;28;20259;-68
2022/06/28 04:32:54;;;;;;;1.92;1.50;;;;;;;;;;5084983;28;20234;-68
2022/06/28 04:35:21;;;;;;;4.13;1.17;;;;;;;;;;5084951;28;20204;-68
2022/06/28 04:37:47;;;;;;;2.95;1.58;;;;;;;;;;5084627;28;20207;-68
2022/06/28 04:40:14;;;;;;;1.92;1.30;;;;;;;;;;5084901;28;20204;-68
2022/06/28 04:42:40;;;;;;;1.33;1.33;;;;;;;;;;5085136;28;20445;-68
2022/06/28 04:45:07;;;;;;;3.83;1.48;;;;;;;;;;5084608;28;20196;-68
2022/06/28 04:47:36;;;;;;;1.15;1.15;;;;;;;;;;5084350;28;20220;-68
2022/06/28 04:50:02;;;;;;;1.65;1.40;;;;;;;;;;5084602;28;20243;-68
2022/06/28 04:52:28;;;;;;;1.80;1.25;;;;;;;;;;5084802;28;20527;-68
2022/06/28 04:54:54;;;;;;;1.10;1.10;;;;;;;;;;5084538;28;20242;-68
2022/06/28 04:57:21;;;;;;;1.80;1.38;;;;;;;;;;5084239;28;20196;-68
2022/06/28 04:59:47;;;;;;;1.70;1.60;;;;;;;;;;5084270;28;20204;-68
2022/06/28 05:02:13;;;;;;;2.50;1.48;;;;;;;;;;5084269;28;20204;-68
2022/06/28 05:04:41;;;;;;;2.47;1.33;;;;;;;;;;5084379;28;20200;-68
2022/06/28 05:07:07;;;;;;;1.65;1.52;;;;;;;;;;5084194;28;20205;-68
2022/06/28 05:09:33;;;;;;;1.30;1.30;;;;;;;;;;5084501;28;20231;-68
2022/06/28 05:12:00;;;;;;;5.88;1.40;;;;;;;;;;5083184;28;20203;-68
2022/06/28 05:14:26;;;;;;;2.90;1.60;;;;;;;;;;5083910;28;20504;-68
2022/06/28 05:16:53;;;;;;;2.25;1.48;;;;;;;;;;5084114;28;20212;-68
2022/06/28 05:19:19;;;;;;;1.98;1.50;;;;;;;;;;5084055;28;20192;-68
2022/06/28 05:21:47;;;;;;;2.58;1.65;;;;;;;;;;5084308;28;20421;-68
2022/06/28 05:24:13;;;;;;;4.22;1.80;;;;;;;;;;5080475;28;20203;-67
2022/06/28 05:26:39;;;;;;;3.15;1.83;;;;;;;;;;5074259;28;20512;-67
2022/06/28 05:29:05;;;;;;;1.50;1.40;;;;;;;;;;5079239;28;20227;-67
2022/06/28 05:31:32;;;;;;;2.50;2.30;;;;;;;;;;5080563;28;20212;-68
2022/06/28 05:33:58;;;;;;;3.05;2.80;;;;;;;;;;5080667;28;20204;-69
2022/06/28 05:36:24;;;;;;;8.48;3.08;;;;;;;;;;5077952;28;20547;-62
2022/06/28 05:38:52;;;;;;;5.47;4.18;;;;;;;;;;5077704;28;20204;-62
2022/06/28 05:41:18;;;;;;;3.58;3.28;;;;;;;;;;5075352;28;20216;-62
2022/06/28 05:43:44;;;;;;;3.72;3.42;;;;;;;;;;5074318;28;20212;-63
2022/06/28 05:46:11;;;;;;;3.95;3.65;;;;;;;;;;5075165;28;20565;-63
2022/06/28 05:48:37;;;;;;;3.60;3.50;;;;;;;;;;5075945;28;20464;-63
2022/06/28 05:51:03;;;;;;;3.80;3.50;;;;;;;;;;5075839;28;20216;-61
2022/06/28 05:53:30;;;;;;;3.80;3.50;;;;;;;;;;5075790;28;20219;-61
2022/06/28 05:55:58;;;;;;;4.03;3.83;;;;;;;;;;5075798;28;20414;-61
2022/06/28 05:58:24;;;;;;;6.97;4.15;;;;;;;;;;5075540;28;20230;-61
2022/06/28 06:00:50;;;;;;;4.55;4.07;;;;;;;;;;5076005;28;20212;-61
2022/06/28 06:03:17;;;;;;;5.90;5.40;;;;;;;;;;5071863;28;20403;-61
2022/06/28 06:05:43;;;;;;;4.65;4.28;;;;;;;;;;5075142;28;20229;-62
2022/06/28 06:08:09;;;;;;;4.55;4.25;;;;;;;;;;5073641;28;20227;-62
2022/06/28 06:10:36;;;;;;;4.40;4.10;;;;;;;;;;5074684;28;20536;-62
2022/06/28 06:13:03;;;;;;;4.68;4.47;;;;;;;;;;5074705;28;20220;-62
2022/06/28 06:15:30;;;;;;;8.45;4.57;;;;;;;;;;5074442;28;20402;-62
2022/06/28 06:17:56;;;;;;;5.05;4.75;;;;;;;;;;5075206;28;20258;-61
2022/06/28 06:20:23;;;;;;;4.88;4.57;;;;;;;;;;5075382;28;20212;-61
2022/06/28 06:22:49;;;;;;;5.03;4.70;;;;;;;;;;5075447;28;20212;-61
2022/06/28 06:25:16;;;;;;;6.40;5.90;;;;;;;;;;5076105;28;20216;-62
2022/06/28 06:27:42;;;;;;;6.93;5.88;;;;;;;;;;5074340;28;20227;-62
2022/06/28 06:30:11;;;;;;;6.43;5.75;;;;;;;;;;5074543;28;20519;-61
2022/06/28 06:32:37;;;;;;;7.03;6.32;;;;;;;;;;5074791;28;20212;-60
2022/06/28 06:35:03;;;;;;;6.57;6.07;;;;;;;;;;5074073;28;20258;-62
2022/06/28 06:37:30;;;;;;;6.20;5.90;;;;;;;;;;5076647;28;20258;-62
2022/06/28 06:39:56;;;;;;;8.35;6.25;;;;;;;;;;5074541;28;20215;-62
2022/06/28 06:42:22;;;;;;;6.20;5.85;;;;;;;;;;5074755;28;20516;-63
2022/06/28 06:44:48;;;;;;;6.43;6.00;;;;;;;;;;5074262;28;20208;-62
2022/06/28 06:47:16;;;;;;;6.35;5.85;;;;;;;;;;5073364;28;20250;-62
2022/06/28 06:49:42;;;;;;;6.60;6.10;;;;;;;;;;5074389;28;20337;-62
2022/06/28 06:52:08;;;;;;;7.80;7.10;;;;;;;;;;5073972;28;20216;-62
2022/06/28 06:54:35;;;;;;;10.23;6.00;;;;;;;;;;5073574;28;20231;-62
2022/06/28 06:57:01;;;;;;;6.43;5.88;;;;;;;;;;5073486;28;20301;-62
2022/06/28 06:59:27;;;;;;;7.03;6.47;;;;;;;;;;5074628;28;20207;-62
2022/06/28 07:01:54;;;;;;;5.82;5.45;;;;;;;;;;5074161;28;20212;-62
2022/06/28 07:04:24;;;;;;;5.90;5.43;;;;;;;;;;5074099;28;20283;-62
2022/06/28 07:06:50;;;;;;;5.30;4.82;;;;;;;;;;5074082;28;20547;-62
2022/06/28 07:09:16;;;;;;;5.80;5.47;;;;;;;;;;5073967;28;20232;-62
2022/06/28 07:11:42;;;;;;;5.88;5.32;;;;;;;;;;5074943;28;20219;-62
2022/06/28 07:14:09;;;;;;;6.13;5.68;;;;;;;;;;5073805;28;20216;-63
2022/06/28 07:16:35;;;;;;;7.35;6.68;;;;;;;;;;5073070;28;20212;-63
2022/06/28 07:19:01;;;;;;;6.93;6.43;;;;;;;;;;5074126;28;20547;-62
2022/06/28 07:21:29;;;;;;;6.28;5.75;;;;;;;;;;5074144;28;20273;-63
2022/06/28 07:23:55;;;;;;;5.93;5.63;;;;;;;;;;5073640;28;20204;-63
2022/06/28 07:26:21;;;;;;;5.35;5.05;;;;;;;;;;5073373;28;20212;-63
2022/06/28 07:28:48;;;;;;;6.47;6.15;;;;;;;;;;5072989;28;20232;-63
2022/06/28 07:31:15;;;;;;;7.53;6.68;;;;;;;;;;5074338;28;20227;-63
2022/06/28 07:33:41;;;;;;;7.13;6.57;;;;;;;;;;5074077;28;20540;-63
2022/06/28 07:36:08;;;;;;;5.75;5.38;;;;;;;;;;5077427;28;20668;-62
2022/06/28 07:38:35;;;;;;;9.13;6.43;;;;;;;;;;5077820;28;20208;-62
2022/06/28 07:41:02;;;;;;;10.95;8.40;;;;;;;;;;5077848;28;20434;-62
2022/06/28 07:43:28;;;;;;;6.97;6.47;;;;;;;;;;5078138;28;20239;-62
2022/06/28 07:45:54;;;;;;;6.90;6.22;;;;;;;;;;5077493;28;20220;-62
2022/06/28 07:48:21;;;;;;;7.22;6.72;;;;;;;;;;5077464;28;20232;-61
2022/06/28 07:53:31;;;;;;;6.90;6.45;;;;;;;;;;5075573;28;20250;-62
2022/06/28 07:55:58;;;;;;;6.00;5.60;;;;;;;;;;5076458;28;20460;-62
2022/06/28 07:58:25;;;;;;;6.20;5.80;;;;;;;;;;5076778;28;20370;-63
2022/06/28 08:00:51;;;;;;;6.13;5.63;;;;;;;;;;5077331;28;20250;-63
2022/06/28 08:03:17;;;;;;;5.90;5.22;;;;;;;;;;5073127;28;20545;-62
2022/06/28 08:05:44;;;;;;;5.60;5.10;;;;;;;;;;5076447;28;20578;-63
2022/06/28 08:08:10;;;;;;;6.45;5.78;;;;;;;;;;5075141;28;20220;-63
2022/06/28 08:10:36;;;;;;;6.65;6.05;;;;;;;;;;5075988;28;20239;-61
2022/06/28 08:13:04;;;;;;;6.18;4.85;;;;;;;;;;5076943;28;20219;-61
2022/06/28 08:15:30;;;;;;;5.57;5.05;;;;;;;;;;5076054;28;20365;-62
2022/06/28 08:17:57;;;;;;;4.95;4.65;;;;;;;;;;5076035;28;20208;-63
2022/06/28 08:20:23;;;;;;;4.60;4.30;;;;;;;;;;5076443;28;20245;-63
2022/06/28 08:22:49;;;;;;;4.68;4.40;;;;;;;;;;5076891;28;20516;-62
2022/06/28 08:25:16;;;;;;;4.72;4.43;;;;;;;;;;5076007;28;20212;-62
2022/06/28 08:27:42;;;;;;;3.95;3.85;;;;;;;;;;5075823;28;20221;-61
2022/06/28 08:30:10;;;;;;;4.53;4.20;;;;;;;;;;5075771;28;20239;-60
2022/06/28 08:32:36;;;;;;;3.95;3.70;;;;;;;;;;5076078;28;20212;-60
2022/06/28 08:35:03;;;;;;;4.43;4.22;;;;;;;;;;5076007;28;20445;-61
2022/06/28 08:37:29;;;;;;;3.95;3.72;;;;;;;;;;5076511;28;20212;-63
2022/06/28 08:39:55;;;;;;;4.60;4.38;;;;;;;;;;5076855;28;20251;-61
2022/06/28 08:42:25;;;;;;;5.20;4.70;;;;;;;;;;5076605;28;20223;-61
2022/06/28 08:44:51;;;;;;;3.85;3.63;;;;;;;;;;5073011;28;20201;-62
2022/06/28 08:47:19;;;;;;;4.32;3.60;;;;;;;;;;5075545;28;20329;-63
2022/06/28 08:49:51;;;;;;;4.72;4.07;;;;;;;;;;5075762;28;20415;-64
2022/06/28 08:52:18;;;;;;;3.92;3.65;;;;;;;;;;5076268;28;20212;-62
2022/06/28 08:54:46;;;;;;;3.72;3.63;;;;;;;;;;5075593;28;20212;-61
2022/06/28 08:57:12;;;;;;;3.67;3.42;;;;;;;;;;5075081;28;20588;-64
2022/06/28 08:59:39;;;;;;;3.80;3.67;;;;;;;;;;5076050;28;20215;-59
2022/06/28 09:02:06;;;;;;;4.70;3.63;;;;;;;;;;5075631;28;20212;-61
2022/06/28 09:04:33;;;;;;;3.95;3.53;;;;;;;;;;5075798;28;20538;-62
2022/06/28 09:07:00;;;;;;;4.88;4.47;;;;;;;;;;5075597;28;20219;-60
2022/06/28 09:09:26;;;;;;;3.65;3.50;;;;;;;;;;5075644;28;20273;-61
2022/06/28 09:11:53;;;;;;;3.90;3.70;;;;;;;;;;5075105;28;20233;-61
2022/06/28 09:14:23;;;;;;;4.13;3.25;;;;;;;;;;5076565;28;20212;-61
2022/06/28 09:16:49;;;;;;;2.90;2.70;;;;;;;;;;5071893;28;20235;-60
2022/06/28 09:19:16;;;;;;;2.75;2.60;;;;;;;;;;5076650;28;20219;-63
2022/06/28 09:21:44;;;;;;;3.17;2.90;;;;;;;;;;5075468;28;20274;-60
2022/06/28 09:24:10;;;;;;;2.67;2.45;;;;;;;;;;5075649;28;20212;-61
2022/06/28 09:26:36;;;;;;;3.50;2.70;;;;;;;;;;5074295;28;20487;-61
2022/06/28 09:29:11;;;;;;;2.70;2.60;;;;;;;;;;5075251;28;20400;-61
2022/06/28 09:31:37;;;;;;;3.17;2.97;;;;;;;;;;5073600;28;20274;-61
2022/06/28 09:34:05;;;;;;;2.13;2.03;;;;;;;;;;5075758;28;20219;-61
2022/06/28 09:36:32;;;;;;;2.40;2.40;;;;;;;;;;5074457;28;20242;-62
2022/06/28 09:39:09;;;;;;;2.50;2.50;;;;;;;;;;5075337;28;20379;-62
2022/06/28 09:41:36;;;;;;;2.33;2.22;;;;;;;;;;5075553;28;20219;-62
2022/06/28 09:44:03;;;;;;;1.98;1.90;;;;;;;;;;5075025;28;20472;-62
2022/06/28 09:46:30;;;;;;;2.20;1.65;;;;;;;;;;5074874;28;20510;-60
2022/06/28 09:48:58;;;;;;;3.10;2.90;;;;;;;;;;5075470;28;20216;-62
2022/06/28 09:51:25;;;;;;;2.40;1.50;;;;;;;;;;5074561;28;20544;-63
2022/06/28 09:53:52;;;;;;;1.80;1.80;;;;;;;;;;5075714;28;20212;-64
2022/06/28 09:56:22;;;;;;;2.00;2.00;;;;;;;;;;5070859;28;20235;-62
2022/06/28 09:58:49;;;;;;;2.80;2.60;;;;;;;;;;5075421;28;20219;-62
2022/06/28 10:01:16;;;;;;;2.65;2.47;;;;;;;;;;5075222;28;20277;-60
2022/06/28 10:03:43;;;;;;;2.70;2.50;;;;;;;;;;5075096;28;20219;-61
2022/06/28 10:06:09;;;;;;;1.88;1.88;;;;;;;;;;5074177;28;20235;-61
2022/06/28 10:08:35;;;;;;;2.25;1.40;;;;;;;;;;5075998;28;20212;-61
2022/06/28 10:11:02;;;;;;;1.33;1.33;;;;;;;;;;5074724;28;20278;-60
2022/06/28 10:16:27;;;;;;;2.00;1.40;;;;;;;;;;5074436;28;20215;-61
2022/06/28 10:18:54;;;;;;;2.00;1.75;;;;;;;;;;5072026;28;20442;-61
2022/06/28 10:21:35;;;;;;;1.42;1.40;;;;;;;;;;5074413;28;20212;-60
2022/06/28 10:24:01;;;;;;;1.23;1.20;;;;;;;;;;5072664;28;20247;-60
2022/06/28 10:26:28;;;;;;;1.20;1.20;;;;;;;;;;5074015;28;20254;-59
2022/06/28 10:29:02;;;;;;;1.70;1.70;;;;;;;;;;5074496;28;20211;-59
2022/06/28 10:31:33;;;;;;;1.95;1.60;;;;;;;;;;5073755;28;20214;-61
2022/06/28 10:34:00;;;;;;;3.60;1.60;;;;;;;;;;5074605;28;20207;-60
2022/06/28 10:36:31;;;;;;;2.08;1.52;;;;;;;;;;5073196;28;20215;-61
2022/06/28 10:39:10;;;;;;;1.42;1.38;;;;;;;;;;5073062;28;20200;-61
2022/06/28 10:41:36;;;;;;;1.20;1.20;;;;;;;;;;5072538;28;20214;-61
2022/06/28 10:44:08;;;;;;;1.67;1.10;;;;;;;;;;5074719;28;20216;-61
2022/06/28 10:46:35;;;;;;;1.13;1.13;;;;;;;;;;5073484;28;20245;-61
2022/06/28 10:49:08;;;;;;;1.13;1.02;;;;;;;;;;5074460;28;20447;-61
2022/06/28 10:51:36;;;;;;;1.38;1.38;;;;;;;;;;5074046;28;20211;-61
2022/06/28 10:54:04;;;;;;;16.50;3.55;;;;;;;;;;5074168;28;20211;-62
2022/06/28 10:56:31;;;;;;;4.00;2.08;;;;;;;;;;5073882;28;20208;-63
2022/06/28 10:58:57;;;;;;;1.55;1.45;;;;;;;;;;5073887;28;20253;-62
2022/06/28 11:01:45;;;;;;;2.33;1.30;;;;;;;;;;5074475;28;20200;-62
2022/06/28 11:04:13;;;;;;;1.00;1.00;;;;;;;;;;5070340;28;20415;-63
2022/06/28 11:06:40;;;;;;;1.67;1.05;;;;;;;;;;5073015;28;20265;-63
2022/06/28 11:09:09;;;;;;;1.80;1.80;;;;;;;;;;5072740;28;20211;-63
2022/06/28 11:11:35;;;;;;;0.90;0.90;;;;;;;;;;5074395;28;20441;-63
2022/06/28 11:14:27;;;;;;;1.05;0.90;;;;;;;;;;5073344;28;20218;-63
2022/06/28 11:16:54;;;;;;;3.17;1.05;;;;;;;;;;5070755;28;20211;-63
2022/06/28 11:19:21;;;;;;;1.20;1.15;;;;;;;;;;5074663;28;20208;-63
2022/06/28 11:21:48;;;;;;;1.23;1.23;;;;;;;;;;5074669;28;20208;-63
2022/06/28 11:24:14;;;;;;;3.83;1.30;;;;;;;;;;5073669;28;20261;-61
2022/06/28 11:29:25;;;;;;;2.30;1.25;;;;;;;;;;5070892;28;20238;-61
2022/06/28 11:31:51;;;;;;;1.40;1.30;;;;;;;;;;5073949;28;20230;-61
2022/06/28 11:34:24;;;;;;;1.23;1.13;;;;;;;;;;5074825;28;20230;-62
2022/06/28 11:36:54;;;;;;;1.13;1.10;;;;;;;;;;5070584;28;20223;-63
2022/06/28 11:39:21;;;;;;;1.13;1.02;;;;;;;;;;5074114;28;20204;-62
2022/06/28 11:41:48;;;;;;;1.55;1.25;;;;;;;;;;5074459;28;20229;-62
2022/06/28 11:44:15;;;;;;;2.40;1.20;;;;;;;;;;5074407;28;20553;-63
2022/06/28 11:46:41;;;;;;;3.17;1.02;;;;;;;;;;5073122;28;20212;-61
2022/06/28 11:49:08;;;;;;;1.27;1.17;;;;;;;;;;5073859;28;20543;-62
2022/06/28 11:51:35;;;;;;;1.58;1.27;;;;;;;;;;5072892;28;20227;-62
2022/06/28 11:54:10;;;;;;;2.15;0.90;;;;;;;;;;5073924;28;20216;-62
2022/06/28 11:56:57;;;;;;;1.60;1.30;;;;;;;;;;5073188;28;20218;-62
2022/06/28 11:59:47;;;;;;;3.33;1.13;;;;;;;;;;5073502;28;20577;-62
2022/06/28 12:05:34;;;;;;;2.28;1.23;;;;;;;;;;5072332;28;20231;-62
2022/06/28 12:08:02;;;;;;;2.03;1.20;;;;;;;;;;5069281;28;20376;-61
2022/06/28 12:10:29;;;;;;;2.47;0.90;;;;;;;;;;5072619;28;20231;-62
2022/06/28 12:12:56;;;;;;;1.02;1.00;;;;;;;;;;5073641;28;20211;-62
2022/06/28 12:15:30;;;;;;;0.90;0.90;;;;;;;;;;5073221;28;20219;-61
2022/06/28 12:17:59;;;;;;;1.70;1.05;;;;;;;;;;5070272;28;20219;-62
2022/06/28 12:20:28;;;;;;;2.08;0.90;;;;;;;;;;5074521;28;20415;-62
2022/06/28 12:23:04;;;;;;;0.88;0.80;;;;;;;;;;5076493;28;20212;-62
2022/06/28 12:25:30;;;;;;;0.93;0.93;;;;;;;;;;5076453;28;20367;-63
2022/06/28 12:27:57;;;;;;;2.10;1.02;;;;;;;;;;5076545;28;20466;-63
2022/06/28 12:30:23;;;;;;;2.55;1.13;;;;;;;;;;5076443;28;20238;-63
2022/06/28 12:32:52;;;;;;;1.95;1.02;;;;;;;;;;5073562;28;20223;-63
2022/06/28 12:35:18;;;;;;;2.35;0.80;;;;;;;;;;5076963;28;20260;-63
2022/06/28 12:37:44;;;;;;;1.00;0.63;;;;;;;;;;5076100;28;20212;-64
2022/06/28 12:40:13;;;;;;;1.45;1.00;;;;;;;;;;5076745;28;20269;-63
2022/06/28 12:42:39;;;;;;;1.05;1.05;;;;;;;;;;5076402;28;20557;-63
2022/06/28 12:45:06;;;;;;;1.48;0.93;;;;;;;;;;5076275;28;20212;-64
2022/06/28 12:47:33;;;;;;;1.73;0.82;;;;;;;;;;5076491;28;20515;-64
2022/06/28 12:50:02;;;;;;;0.90;0.90;;;;;;;;;;5076377;28;20224;-64
2022/06/28 12:52:29;;;;;;;0.70;0.70;;;;;;;;;;5076123;28;20310;-63
2022/06/28 12:54:57;;;;;;;1.85;1.20;;;;;;;;;;5075943;28;20562;-62
2022/06/28 12:57:25;;;;;;;1.67;0.80;;;;;;;;;;5075687;28;20234;-64
2022/06/28 12:59:52;;;;;;;0.95;0.90;;;;;;;;;;5076792;28;20223;-63
2022/06/28 13:02:18;;;;;;;0.93;0.90;;;;;;;;;;5076340;28;20218;-62
2022/06/28 13:04:47;;;;;;;0.80;0.80;;;;;;;;;;5074959;28;20211;-64
2022/06/28 13:07:13;;;;;;;4.80;1.00;;;;;;;;;;5075700;28;20685;-63
2022/06/28 13:09:39;;;;;;;0.73;0.73;;;;;;;;;;5075880;28;20203;-63
2022/06/28 13:12:06;;;;;;;1.17;0.70;;;;;;;;;;5075222;28;20208;-63
2022/06/28 13:14:34;;;;;;;1.52;0.80;;;;;;;;;;5075532;28;20219;-64
2022/06/28 13:17:00;;;;;;;1.00;1.00;;;;;;;;;;5074968;28;20216;-63
2022/06/28 13:19:27;;;;;;;1.90;0.82;;;;;;;;;;5075470;28;20464;-64
2022/06/28 13:21:53;;;;;;;0.82;0.80;;;;;;;;;;5075155;28;20200;-64
2022/06/28 13:24:19;;;;;;;0.65;0.65;;;;;;;;;;5071121;28;20216;-64
2022/06/28 13:26:45;;;;;;;2.00;0.88;;;;;;;;;;5074697;28;20573;-64
2022/06/28 13:29:12;;;;;;;0.80;0.80;;;;;;;;;;5075290;28;20465;-64
2022/06/28 13:31:40;;;;;;;0.93;0.93;;;;;;;;;;5073978;28;20236;-63
2022/06/28 13:34:06;;;;;;;0.70;0.70;;;;;;;;;;5075198;28;20523;-63
2022/06/28 13:36:33;;;;;;;0.80;0.80;;;;;;;;;;5073722;28;20234;-63
2022/06/28 13:39:00;;;;;;;0.60;0.60;;;;;;;;;;5075092;28;20499;-63
2022/06/28 13:41:27;;;;;;;1.85;0.80;;;;;;;;;;5074819;28;20214;-62
2022/06/28 13:43:53;;;;;;;2.15;0.70;;;;;;;;;;5075582;28;20218;-62
2022/06/28 13:46:19;;;;;;;0.82;0.77;;;;;;;;;;5071537;28;20208;-63
2022/06/28 13:48:47;;;;;;;4.38;0.80;;;;;;;;;;5075195;28;20208;-63
2022/06/28 13:51:13;;;;;;;0.80;0.80;;;;;;;;;;5074073;28;20304;-63
2022/06/28 13:53:39;;;;;;;6.28;1.10;;;;;;;;;;5075170;28;20575;-63
2022/06/28 13:56:06;;;;;;;0.77;0.77;;;;;;;;;;5073907;28;20485;-63
2022/06/28 13:58:33;;;;;;;1.63;0.68;;;;;;;;;;5074709;28;20484;-63
2022/06/28 14:01:01;;;;;;;4.43;0.63;;;;;;;;;;5074597;28;20284;-64
2022/06/28 14:03:27;;;;;;;1.05;0.50;;;;;;;;;;5074250;28;20444;-63
2022/06/28 14:05:55;;;;;;;0.50;0.50;;;;;;;;;;5073646;28;20227;-63
2022/06/28 14:08:22;;;;;;;1.48;0.77;;;;;;;;;;5074499;28;20257;-63
2022/06/28 14:10:48;;;;;;;0.85;0.60;;;;;;;;;;5074591;28;20232;-63
2022/06/28 14:13:14;;;;;;;3.15;0.50;;;;;;;;;;5074900;28;20295;-63
2022/06/28 14:15:41;;;;;;;1.65;0.80;;;;;;;;;;5073706;28;20231;-63
2022/06/28 14:18:07;;;;;;;0.80;0.60;;;;;;;;;;5074016;28;20404;-62
2022/06/28 14:20:33;;;;;;;2.85;0.80;;;;;;;;;;5073855;28;20428;-63
2022/06/28 14:23:01;;;;;;;3.03;0.80;;;;;;;;;;5073848;28;20520;-63
2022/06/28 14:25:27;;;;;;;3.65;0.95;;;;;;;;;;5073773;28;20211;-63
2022/06/28 14:27:53;;;;;;;0.60;0.60;;;;;;;;;;5074002;28;20346;-63
2022/06/28 14:30:20;;;;;;;0.75;0.60;;;;;;;;;;5070122;28;20219;-64
2022/06/28 14:32:46;;;;;;;2.60;0.80;;;;;;;;;;5074246;28;20211;-63
2022/06/28 14:35:13;;;;;;;0.88;0.88;;;;;;;;;;5073282;28;20212;-62
2022/06/28 14:37:39;;;;;;;0.70;0.70;;;;;;;;;;5073904;28;20221;-62
2022/06/28 14:40:08;;;;;;;0.70;0.70;;;;;;;;;;5074022;28;20420;-62
2022/06/28 14:42:34;;;;;;;0.80;0.80;;;;;;;;;;5074734;28;20215;-61
2022/06/28 14:45:01;;;;;;;0.93;0.70;;;;;;;;;;5073819;28;20572;-63
2022/06/28 14:47:27;;;;;;;0.70;0.70;;;;;;;;;;5073792;28;20211;-62
2022/06/28 14:49:53;;;;;;;1.52;0.70;;;;;;;;;;5073542;28;20204;-62
2022/06/28 14:52:20;;;;;;;0.50;0.50;;;;;;;;;;5070782;28;20231;-60
2022/06/28 14:54:49;;;;;;;1.63;0.70;;;;;;;;;;5073375;28;20212;-61
2022/06/28 14:57:16;;;;;;;0.73;0.70;;;;;;;;;;5072813;28;20219;-62
2022/06/28 14:59:43;;;;;;;2.50;0.93;;;;;;;;;;5073707;28;20902;-62
2022/06/28 15:02:09;;;;;;;0.90;0.77;;;;;;;;;;5073463;28;20208;-63